Time,TemperatureF,DewpointF,PressureIn,WindDirection,WindDirectionDegrees,WindSpeedMPH,WindSpeedGustMPH,Humidity,HourlyPrecipIn,Conditions,Clouds,dailyrainin,SoftwareType,DateUTC
2013-07-13 00:11:00,73.8,72.9,29.81,ESE,112,0.0,-999.0,97,-99.99,,,0.00,Acu-Link.com,2013-07-13 04:11:00,
2013-07-13 00:26:00,73.6,72.7,29.80,ESE,112,0.0,-999.0,97,-99.99,,,0.00,Acu-Link.com,2013-07-13 04:26:00,
2013-07-13 00:41:00,73.8,72.9,29.81,ESE,112,0.0,-999.0,97,-99.99,,,0.00,Acu-Link.com,2013-07-13 04:41:00,
2013-07-13 00:56:00,73.8,72.9,29.81,SSE,157,1.1,-999.0,97,-99.99,,,0.00,Acu-Link.com,2013-07-13 04:56:00,
2013-07-13 01:11:00,73.8,72.9,29.81,SSE,157,0.0,-999.0,97,-99.99,,,0.00,Acu-Link.com,2013-07-13 05:11:00,
2013-07-13 01:26:00,73.8,72.9,29.80,SSE,157,0.0,-999.0,97,-99.99,,,0.00,Acu-Link.com,2013-07-13 05:26:00,
2013-07-13 01:41:00,73.8,72.9,29.80,SE,135,3.2,-999.0,97,-99.99,,,0.00,Acu-Link.com,2013-07-13 05:41:00,
2013-07-13 01:56:00,73.6,72.7,29.79,ESE,112,2.2,-999.0,97,-99.99,,,0.00,Acu-Link.com,2013-07-13 05:56:00,
2013-07-13 02:11:00,73.6,72.7,29.79,SE,135,2.2,-999.0,97,-99.99,,,0.00,Acu-Link.com,2013-07-13 06:11:00,
2013-07-13 02:27:00,73.4,72.5,29.80,SE,135,2.2,-999.0,97,-99.99,,,0.00,Acu-Link.com,2013-07-13 06:27:00,
2013-07-13 02:42:00,73.0,71.5,29.79,South,180,2.2,-999.0,95,-99.99,,,0.00,Acu-Link.com,2013-07-13 06:42:00,
2013-07-13 02:57:00,73.2,71.0,29.78,SW,225,0.0,-999.0,93,-99.99,,,0.00,Acu-Link.com,2013-07-13 06:57:00,
2013-07-13 03:12:00,73.4,70.9,29.77,SSW,202,3.2,-999.0,92,-99.99,,,0.00,Acu-Link.com,2013-07-13 07:12:00,
2013-07-13 03:27:00,73.9,71.4,29.78,SSW,202,2.2,-999.0,92,-99.99,,,0.00,Acu-Link.com,2013-07-13 07:27:00,
2013-07-13 03:42:00,73.9,71.7,29.78,ESE,112,1.7,-999.0,93,-99.99,,,0.00,Acu-Link.com,2013-07-13 07:42:00,
2013-07-13 03:57:00,73.9,71.7,29.78,SE,135,3.7,-999.0,93,-99.99,,,0.00,Acu-Link.com,2013-07-13 07:57:00,
2013-07-13 04:13:00,74.1,71.6,29.78,SE,135,2.7,-999.0,92,-99.99,,,0.00,Acu-Link.com,2013-07-13 08:13:00,
2013-07-13 04:28:00,73.9,71.7,29.78,SE,135,0.0,-999.0,93,-99.99,,,0.00,Acu-Link.com,2013-07-13 08:28:00,
2013-07-13 04:43:00,73.8,72.0,29.77,SE,135,0.0,-999.0,94,-99.99,,,0.00,Acu-Link.com,2013-07-13 08:43:00,
2013-07-13 04:59:00,73.8,71.6,29.77,SSW,202,1.1,-999.0,93,-99.99,,,0.00,Acu-Link.com,2013-07-13 08:59:00,
2013-07-13 05:14:00,73.9,71.7,29.77,SSE,157,0.0,-999.0,93,-99.99,,,0.00,Acu-Link.com,2013-07-13 09:14:00,
2013-07-13 05:29:00,73.8,72.0,29.78,SSW,202,0.0,-999.0,94,-99.99,,,0.00,Acu-Link.com,2013-07-13 09:29:00,
2013-07-13 05:44:00,73.8,72.0,29.78,SSW,202,1.1,-999.0,94,-99.99,,,0.00,Acu-Link.com,2013-07-13 09:44:00,
2013-07-13 05:59:00,73.6,72.1,29.78,SSW,202,2.2,-999.0,95,-99.99,,,0.00,Acu-Link.com,2013-07-13 09:59:00,
2013-07-13 06:14:00,73.6,72.1,29.78,SSW,202,2.2,-999.0,95,-99.99,,,0.00,Acu-Link.com,2013-07-13 10:14:00,
2013-07-13 06:30:00,73.6,72.1,29.78,SW,225,0.0,-999.0,95,-99.99,,,0.00,Acu-Link.com,2013-07-13 10:30:00,
2013-07-13 06:45:00,73.4,71.9,29.79,SW,225,0.0,-999.0,95,-99.99,,,0.00,Acu-Link.com,2013-07-13 10:45:00,
2013-07-13 07:00:00,73.6,72.1,29.80,SW,225,0.0,-999.0,95,-99.99,,,0.00,Acu-Link.com,2013-07-13 11:00:00,
2013-07-13 07:15:00,73.4,72.2,29.80,ESE,112,0.0,-999.0,96,-99.99,,,0.00,Acu-Link.com,2013-07-13 11:15:00,
2013-07-13 07:30:00,73.8,72.6,29.81,ESE,112,0.0,-999.0,96,-99.99,,,0.00,Acu-Link.com,2013-07-13 11:30:00,
2013-07-13 07:45:00,73.9,72.7,29.81,ESE,112,0.0,-999.0,96,-99.99,,,0.00,Acu-Link.com,2013-07-13 11:45:00,
2013-07-13 08:00:00,74.1,72.9,29.81,ESE,112,0.0,-999.0,96,-99.99,,,0.00,Acu-Link.com,2013-07-13 12:00:00,
2013-07-13 08:15:00,74.5,73.3,29.82,ESE,112,2.2,-999.0,96,-99.99,,,0.00,Acu-Link.com,2013-07-13 12:15:00,
2013-07-13 08:30:00,74.8,73.6,29.81,ESE,112,2.7,-999.0,96,-99.99,,,0.00,Acu-Link.com,2013-07-13 12:30:00,
2013-07-13 08:46:00,75.4,74.2,29.81,SE,135,1.7,-999.0,96,-99.99,,,0.00,Acu-Link.com,2013-07-13 12:46:00,
2013-07-13 09:01:00,76.1,73.9,29.81,SE,135,1.1,-999.0,93,-99.99,,,0.00,Acu-Link.com,2013-07-13 13:01:00,
2013-07-13 09:16:00,77.2,74.4,29.82,South,180,0.0,-999.0,91,-99.99,,,0.00,Acu-Link.com,2013-07-13 13:16:00,
2013-07-13 09:31:00,79.0,75.5,29.82,SE,135,1.7,-999.0,89,-99.99,,,0.00,Acu-Link.com,2013-07-13 13:31:00,
2013-07-13 09:46:00,80.6,74.9,29.82,South,180,2.7,-999.0,83,-99.99,,,0.00,Acu-Link.com,2013-07-13 13:46:00,
2013-07-13 10:01:00,82.0,75.6,29.82,SSE,157,2.2,-999.0,81,-99.99,,,0.00,Acu-Link.com,2013-07-13 14:01:00,
2013-07-13 10:16:00,83.1,75.5,29.82,SSE,157,1.7,-999.0,78,-99.99,,,0.00,Acu-Link.com,2013-07-13 14:16:00,
2013-07-13 10:31:00,84.4,76.0,29.82,West,270,0.0,-999.0,76,-99.99,,,0.00,Acu-Link.com,2013-07-13 14:31:00,
2013-07-13 10:46:00,86.4,76.3,29.82,SSE,157,2.2,-999.0,72,-99.99,,,0.00,Acu-Link.com,2013-07-13 14:46:00,
2013-07-13 11:02:00,87.4,76.0,29.82,SSE,157,1.7,-999.0,69,-99.99,,,0.00,Acu-Link.com,2013-07-13 15:02:00,
2013-07-13 11:17:00,86.0,75.5,29.84,SSW,202,2.2,-999.0,71,-99.99,,,0.00,Acu-Link.com,2013-07-13 15:17:00,
2013-07-13 11:32:00,86.9,77.6,29.83,ESE,112,0.0,-999.0,74,-99.99,,,0.00,Acu-Link.com,2013-07-13 15:32:00,
2013-07-13 11:47:00,80.1,73.4,29.83,ESE,112,10.4,-999.0,80,-99.99,,,0.02,Acu-Link.com,2013-07-13 15:47:00,
2013-07-13 12:02:00,80.8,73.7,29.82,NE,45,2.7,-999.0,79,-99.99,,,0.03,Acu-Link.com,2013-07-13 16:02:00,
2013-07-13 12:17:00,80.8,74.0,29.82,ESE,112,2.7,-999.0,80,-99.99,,,0.03,Acu-Link.com,2013-07-13 16:17:00,
2013-07-13 12:32:00,81.1,75.1,29.83,ESE,112,4.7,-999.0,82,-99.99,,,0.03,Acu-Link.com,2013-07-13 16:32:00,
2013-07-13 12:49:00,76.6,71.7,29.84,SSW,202,7.8,-999.0,85,-99.99,,,0.03,Acu-Link.com,2013-07-13 16:49:00,
2013-07-13 13:04:00,73.8,70.3,29.85,South,180,5.3,-999.0,89,-99.99,,,0.33,Acu-Link.com,2013-07-13 17:04:00,
2013-07-13 13:19:00,74.3,70.8,29.84,SE,135,1.7,-999.0,89,-99.99,,,0.37,Acu-Link.com,2013-07-13 17:19:00,
2013-07-13 13:34:00,74.7,71.6,29.84,ESE,112,4.7,-999.0,90,-99.99,,,0.38,Acu-Link.com,2013-07-13 17:34:00,
2013-07-13 13:50:00,75.4,72.3,29.83,SSE,157,3.7,-999.0,90,-99.99,,,0.40,Acu-Link.com,2013-07-13 17:50:00,
2013-07-13 14:05:00,75.4,72.3,29.83,SE,135,2.2,-999.0,90,-99.99,,,0.40,Acu-Link.com,2013-07-13 18:05:00,
2013-07-13 14:20:00,75.2,72.4,29.83,ESE,112,2.7,-999.0,91,-99.99,,,0.40,Acu-Link.com,2013-07-13 18:20:00,
2013-07-13 14:35:00,75.2,72.7,29.83,ESE,112,4.2,-999.0,92,-99.99,,,0.41,Acu-Link.com,2013-07-13 18:35:00,
2013-07-13 15:17:00,75.2,73.0,29.83,SE,135,0.0,-999.0,93,-99.99,,,0.45,Acu-Link.com,2013-07-13 19:17:00,
2013-07-13 15:32:00,75.6,73.4,29.83,SE,135,2.2,-999.0,93,-99.99,,,0.47,Acu-Link.com,2013-07-13 19:32:00,
2013-07-13 15:47:00,75.4,73.2,29.82,ESE,112,0.0,-999.0,93,-99.99,,,0.49,Acu-Link.com,2013-07-13 19:47:00,
2013-07-13 16:02:00,75.6,73.4,29.82,West,270,4.2,-999.0,93,-99.99,,,0.50,Acu-Link.com,2013-07-13 20:02:00,
2013-07-13 16:17:00,75.6,73.4,29.82,SW,225,4.2,-999.0,93,-99.99,,,0.52,Acu-Link.com,2013-07-13 20:17:00,
2013-07-13 16:32:00,75.9,73.7,29.82,West,270,2.7,-999.0,93,-99.99,,,0.53,Acu-Link.com,2013-07-13 20:32:00,
2013-07-13 16:47:00,75.7,73.5,29.83,SW,225,3.2,-999.0,93,-99.99,,,0.53,Acu-Link.com,2013-07-13 20:47:00,
2013-07-13 17:02:00,74.7,72.5,29.82,SSW,202,1.1,-999.0,93,-99.99,,,0.58,Acu-Link.com,2013-07-13 21:02:00,
2013-07-13 17:17:00,73.2,71.0,29.82,SW,225,5.3,-999.0,93,-99.99,,,0.68,Acu-Link.com,2013-07-13 21:17:00,
2013-07-13 17:33:00,73.0,70.9,29.82,West,270,2.2,-999.0,93,-99.99,,,0.75,Acu-Link.com,2013-07-13 21:33:00,
2013-07-13 17:48:00,73.0,70.9,29.81,West,270,0.0,-999.0,93,-99.99,,,0.78,Acu-Link.com,2013-07-13 21:48:00,
2013-07-13 18:03:00,73.0,71.2,29.80,South,180,0.0,-999.0,94,-99.99,,,0.80,Acu-Link.com,2013-07-13 22:03:00,
2013-07-13 18:18:00,73.0,71.5,29.82,South,180,2.2,-999.0,95,-99.99,,,0.82,Acu-Link.com,2013-07-13 22:18:00,
2013-07-13 18:33:00,72.9,71.4,29.81,SW,225,2.2,-999.0,95,-99.99,,,0.84,Acu-Link.com,2013-07-13 22:33:00,
2013-07-13 18:48:00,72.9,71.4,29.80,SW,225,2.2,-999.0,95,-99.99,,,0.88,Acu-Link.com,2013-07-13 22:48:00,
2013-07-13 19:03:00,72.9,71.4,29.81,SSW,202,2.7,-999.0,95,-99.99,,,0.90,Acu-Link.com,2013-07-13 23:03:00,
2013-07-13 19:18:00,72.7,71.2,29.81,South,180,3.7,-999.0,95,-99.99,,,0.91,Acu-Link.com,2013-07-13 23:18:00,
2013-07-13 19:33:00,72.9,71.7,29.81,SW,225,4.2,-999.0,96,-99.99,,,0.93,Acu-Link.com,2013-07-13 23:33:00,
2013-07-13 19:49:00,72.7,71.5,29.81,South,180,2.7,-999.0,96,-99.99,,,0.96,Acu-Link.com,2013-07-13 23:49:00,
2013-07-13 20:04:00,72.5,71.3,29.82,SSW,202,1.7,-999.0,96,-99.99,,,1.02,Acu-Link.com,2013-07-14 00:04:00,
2013-07-13 20:19:00,72.5,71.0,29.83,SSW,202,4.2,-999.0,95,-99.99,,,1.04,Acu-Link.com,2013-07-14 00:19:00,
2013-07-13 20:34:00,72.7,71.2,29.85,South,180,3.7,-999.0,95,-99.99,,,1.07,Acu-Link.com,2013-07-14 00:34:00,
2013-07-13 20:49:00,72.9,71.4,29.85,SSW,202,4.2,-999.0,95,-99.99,,,1.12,Acu-Link.com,2013-07-14 00:49:00,
2013-07-13 21:04:00,73.0,71.5,29.85,SSE,157,2.7,-999.0,95,-99.99,,,1.20,Acu-Link.com,2013-07-14 01:04:00,
2013-07-13 21:19:00,72.9,71.4,29.84,SSE,157,2.7,-999.0,95,-99.99,,,1.22,Acu-Link.com,2013-07-14 01:19:00,
2013-07-13 21:34:00,72.7,71.2,29.83,SSE,157,0.0,-999.0,95,-99.99,,,1.24,Acu-Link.com,2013-07-14 01:34:00,
2013-07-13 21:49:00,72.7,71.5,29.82,SSE,157,0.0,-999.0,96,-99.99,,,1.25,Acu-Link.com,2013-07-14 01:49:00,
2013-07-13 22:05:00,72.7,71.5,29.83,SSE,157,1.1,-999.0,96,-99.99,,,1.26,Acu-Link.com,2013-07-14 02:05:00,
2013-07-13 22:20:00,72.9,71.7,29.85,South,180,1.7,-999.0,96,-99.99,,,1.26,Acu-Link.com,2013-07-14 02:20:00,
2013-07-13 22:35:00,72.9,71.7,29.86,South,180,2.2,-999.0,96,-99.99,,,1.26,Acu-Link.com,2013-07-14 02:35:00,
2013-07-13 22:50:00,72.9,71.7,29.85,South,180,0.0,-999.0,96,-99.99,,,1.26,Acu-Link.com,2013-07-14 02:50:00,
2013-07-13 23:05:00,72.9,72.0,29.86,SSE,157,1.7,-999.0,97,-99.99,,,1.26,Acu-Link.com,2013-07-14 03:05:00,
2013-07-13 23:20:00,72.9,72.0,29.86,South,180,2.7,-999.0,97,-99.99,,,1.26,Acu-Link.com,2013-07-14 03:20:00,
2013-07-13 23:35:00,72.7,71.8,29.84,South,180,2.7,-999.0,97,-99.99,,,1.26,Acu-Link.com,2013-07-14 03:35:00,
2013-07-13 23:51:00,72.7,71.8,29.83,SSE,157,2.2,-999.0,97,-99.99,,,1.26,Acu-Link.com,2013-07-14 03:51:00,